Main page
METAR-TAF:

METAR-TAF

Airports :

Sheldon Municipal Airport

Sheldon, Iowa, United States

latitude: 43-13N, longitude: 095-50W, elevation: 1417 ft

Current weather observation

The report was made 31 minutes ago, at 01:35 UTC
Wind 5 mph from the Southwest
Temperature 39°F
Humidity 48%
Pressure 29.71 in. Hg
Visibility: 10 miles
Clear sky

METAR: KSHL 040135Z AUTO 22004KT 10SM CLR 04/M06 A2971 RMK AO2

Time: 20:06 (02:06 UTC)


TAF: missing

Weather observations and forecasts of more than 4000 airports (METAR and TAF reports).

The available stations are represented by yellow and red dots on the map.

Hover mouse over dot to see the name of the station.

Then click to see weather observations and forecasts.

To change the map : click on the green buttons with a black cross to zoom in, on the green button with a dash to zoom out, or on the green arrows for adjacent maps.


METAR-TAF: